sensor_id;sensor_type;location;lat;lon;timestamp;P1;durP1;ratioP1;P2;durP2;ratioP2
5585;SDS011;2815;54.094;12.112;2023-07-13T00:29:00;5.65;;;1.17;;
5585;SDS011;2815;54.094;12.112;2023-07-13T00:32:04;4.72;;;1.30;;
5585;SDS011;2815;54.094;12.112;2023-07-13T00:50:11;3.95;;;1.30;;
5585;SDS011;2815;54.094;12.112;2023-07-13T00:52:43;5.68;;;1.60;;
5585;SDS011;2815;54.094;12.112;2023-07-13T00:55:18;3.85;;;1.23;;
5585;SDS011;2815;54.094;12.112;2023-07-13T00:57:49;4.35;;;1.52;;
5585;SDS011;2815;54.094;12.112;2023-07-13T01:06:28;4.07;;;1.08;;
5585;SDS011;2815;54.094;12.112;2023-07-13T01:37:28;5.00;;;1.30;;
5585;SDS011;2815;54.094;12.112;2023-07-13T01:39:59;2.83;;;1.00;;
5585;SDS011;2815;54.094;12.112;2023-07-13T01:42:30;3.15;;;1.13;;
5585;SDS011;2815;54.094;12.112;2023-07-13T01:44:58;4.10;;;1.30;;
5585;SDS011;2815;54.094;12.112;2023-07-13T01:47:29;1.95;;;1.00;;
5585;SDS011;2815;54.094;12.112;2023-07-13T01:49:58;5.85;;;1.30;;
5585;SDS011;2815;54.094;12.112;2023-07-13T01:52:28;5.68;;;1.27;;
5585;SDS011;2815;54.094;12.112;2023-07-13T01:54:58;4.63;;;1.13;;
5585;SDS011;2815;54.094;12.112;2023-07-13T01:57:26;4.50;;;1.13;;
5585;SDS011;2815;54.094;12.112;2023-07-13T01:59:55;5.00;;;1.40;;
5585;SDS011;2815;54.094;12.112;2023-07-13T02:02:23;3.50;;;1.17;;
5585;SDS011;2815;54.094;12.112;2023-07-13T02:04:52;3.53;;;1.05;;
5585;SDS011;2815;54.094;12.112;2023-07-13T02:07:21;2.55;;;1.13;;
5585;SDS011;2815;54.094;12.112;2023-07-13T02:09:52;4.93;;;1.50;;
5585;SDS011;2815;54.094;12.112;2023-07-13T02:12:20;2.05;;;1.10;;
5585;SDS011;2815;54.094;12.112;2023-07-13T02:14:48;2.42;;;1.20;;
5585;SDS011;2815;54.094;12.112;2023-07-13T02:31:58;4.85;;;1.40;;
5585;SDS011;2815;54.094;12.112;2023-07-13T02:37:16;4.18;;;1.23;;
5585;SDS011;2815;54.094;12.112;2023-07-13T02:39:44;6.00;;;1.25;;
5585;SDS011;2815;54.094;12.112;2023-07-13T02:42:14;4.75;;;1.50;;
5585;SDS011;2815;54.094;12.112;2023-07-13T02:44:43;7.10;;;1.60;;
5585;SDS011;2815;54.094;12.112;2023-07-13T02:47:13;3.03;;;1.25;;
5585;SDS011;2815;54.094;12.112;2023-07-13T02:49:41;2.97;;;1.52;;
5585;SDS011;2815;54.094;12.112;2023-07-13T02:52:10;2.97;;;1.25;;
5585;SDS011;2815;54.094;12.112;2023-07-13T03:00:01;5.55;;;1.40;;
5585;SDS011;2815;54.094;12.112;2023-07-13T03:02:33;6.70;;;1.80;;
5585;SDS011;2815;54.094;12.112;2023-07-13T03:05:03;4.25;;;1.50;;
5585;SDS011;2815;54.094;12.112;2023-07-13T03:07:32;5.10;;;1.80;;
5585;SDS011;2815;54.094;12.112;2023-07-13T03:10:00;5.15;;;1.92;;
5585;SDS011;2815;54.094;12.112;2023-07-13T03:12:39;5.43;;;1.50;;
5585;SDS011;2815;54.094;12.112;2023-07-13T03:15:14;4.03;;;1.63;;
5585;SDS011;2815;54.094;12.112;2023-07-13T03:17:45;2.80;;;1.50;;
5585;SDS011;2815;54.094;12.112;2023-07-13T03:20:21;7.35;;;1.95;;
5585;SDS011;2815;54.094;12.112;2023-07-13T03:22:50;3.25;;;1.90;;
5585;SDS011;2815;54.094;12.112;2023-07-13T03:25:19;3.60;;;1.67;;
5585;SDS011;2815;54.094;12.112;2023-07-13T03:27:48;5.30;;;1.67;;
5585;SDS011;2815;54.094;12.112;2023-07-13T03:30:17;5.10;;;1.85;;
5585;SDS011;2815;54.094;12.112;2023-07-13T03:32:47;4.57;;;2.13;;
5585;SDS011;2815;54.094;12.112;2023-07-13T03:35:16;5.93;;;1.63;;
5585;SDS011;2815;54.094;12.112;2023-07-13T03:37:45;7.45;;;2.03;;
5585;SDS011;2815;54.094;12.112;2023-07-13T03:40:17;16.13;;;2.40;;
5585;SDS011;2815;54.094;12.112;2023-07-13T03:42:46;8.15;;;1.98;;
5585;SDS011;2815;54.094;12.112;2023-07-13T03:45:17;4.30;;;2.10;;
5585;SDS011;2815;54.094;12.112;2023-07-13T03:47:46;5.13;;;2.40;;
5585;SDS011;2815;54.094;12.112;2023-07-13T03:50:17;3.03;;;2.15;;
5585;SDS011;2815;54.094;12.112;2023-07-13T03:52:46;6.30;;;1.90;;
5585;SDS011;2815;54.094;12.112;2023-07-13T03:55:15;4.68;;;1.90;;
5585;SDS011;2815;54.094;12.112;2023-07-13T03:57:44;4.50;;;1.98;;
5585;SDS011;2815;54.094;12.112;2023-07-13T04:00:13;6.40;;;2.30;;
5585;SDS011;2815;54.094;12.112;2023-07-13T04:02:44;4.60;;;2.22;;
5585;SDS011;2815;54.094;12.112;2023-07-13T04:05:16;3.95;;;2.15;;
5585;SDS011;2815;54.094;12.112;2023-07-13T04:07:45;5.15;;;2.10;;
5585;SDS011;2815;54.094;12.112;2023-07-13T04:10:13;7.25;;;2.10;;
5585;SDS011;2815;54.094;12.112;2023-07-13T04:12:42;6.10;;;2.10;;
5585;SDS011;2815;54.094;12.112;2023-07-13T04:15:10;4.93;;;1.98;;
5585;SDS011;2815;54.094;12.112;2023-07-13T04:20:35;3.83;;;1.60;;
5585;SDS011;2815;54.094;12.112;2023-07-13T04:23:03;4.32;;;1.90;;
5585;SDS011;2815;54.094;12.112;2023-07-13T04:25:32;8.07;;;2.20;;
5585;SDS011;2815;54.094;12.112;2023-07-13T04:28:00;4.80;;;2.20;;
5585;SDS011;2815;54.094;12.112;2023-07-13T04:30:28;3.95;;;1.60;;
5585;SDS011;2815;54.094;12.112;2023-07-13T04:32:56;4.88;;;1.58;;
5585;SDS011;2815;54.094;12.112;2023-07-13T04:35:25;6.40;;;1.90;;
5585;SDS011;2815;54.094;12.112;2023-07-13T04:37:55;8.32;;;2.20;;
5585;SDS011;2815;54.094;12.112;2023-07-13T04:40:23;3.80;;;1.70;;
5585;SDS011;2815;54.094;12.112;2023-07-13T04:42:51;4.13;;;1.48;;
5585;SDS011;2815;54.094;12.112;2023-07-13T04:45:19;3.38;;;1.55;;
5585;SDS011;2815;54.094;12.112;2023-07-13T04:47:48;5.82;;;1.60;;
5585;SDS011;2815;54.094;12.112;2023-07-13T04:50:17;4.95;;;1.73;;
5585;SDS011;2815;54.094;12.112;2023-07-13T04:55:19;6.72;;;1.63;;
5585;SDS011;2815;54.094;12.112;2023-07-13T04:57:48;5.80;;;1.63;;
5585;SDS011;2815;54.094;12.112;2023-07-13T05:00:16;5.93;;;1.50;;
5585;SDS011;2815;54.094;12.112;2023-07-13T05:02:44;7.07;;;1.60;;
5585;SDS011;2815;54.094;12.112;2023-07-13T05:05:13;2.17;;;1.23;;
5585;SDS011;2815;54.094;12.112;2023-07-13T05:07:42;4.47;;;1.65;;
5585;SDS011;2815;54.094;12.112;2023-07-13T05:10:14;6.27;;;1.53;;
5585;SDS011;2815;54.094;12.112;2023-07-13T05:12:44;4.43;;;1.63;;
5585;SDS011;2815;54.094;12.112;2023-07-13T05:15:12;3.33;;;1.50;;
5585;SDS011;2815;54.094;12.112;2023-07-13T05:17:40;5.82;;;1.80;;
5585;SDS011;2815;54.094;12.112;2023-07-13T05:20:09;4.65;;;1.63;;
5585;SDS011;2815;54.094;12.112;2023-07-13T05:22:37;5.35;;;1.70;;
5585;SDS011;2815;54.094;12.112;2023-07-13T05:25:06;5.90;;;1.60;;
5585;SDS011;2815;54.094;12.112;2023-07-13T05:27:35;5.57;;;1.67;;
5585;SDS011;2815;54.094;12.112;2023-07-13T05:30:06;4.88;;;1.30;;
5585;SDS011;2815;54.094;12.112;2023-07-13T05:32:37;3.70;;;1.50;;
5585;SDS011;2815;54.094;12.112;2023-07-13T05:35:05;4.93;;;1.60;;
5585;SDS011;2815;54.094;12.112;2023-07-13T05:37:34;5.15;;;1.50;;
5585;SDS011;2815;54.094;12.112;2023-07-13T05:40:02;4.10;;;1.52;;
5585;SDS011;2815;54.094;12.112;2023-07-13T05:42:30;4.82;;;1.52;;
5585;SDS011;2815;54.094;12.112;2023-07-13T05:45:00;4.57;;;1.40;;
5585;SDS011;2815;54.094;12.112;2023-07-13T05:47:35;5.32;;;1.40;;
5585;SDS011;2815;54.094;12.112;2023-07-13T05:50:03;6.95;;;1.52;;
5585;SDS011;2815;54.094;12.112;2023-07-13T05:52:32;7.30;;;1.63;;
5585;SDS011;2815;54.094;12.112;2023-07-13T05:55:00;4.85;;;1.40;;
5585;SDS011;2815;54.094;12.112;2023-07-13T05:57:29;4.70;;;1.38;;
5585;SDS011;2815;54.094;12.112;2023-07-13T05:59:58;3.25;;;1.63;;
5585;SDS011;2815;54.094;12.112;2023-07-13T06:02:26;5.55;;;1.80;;
5585;SDS011;2815;54.094;12.112;2023-07-13T06:04:57;6.20;;;1.92;;
5585;SDS011;2815;54.094;12.112;2023-07-13T06:07:28;3.33;;;1.60;;
5585;SDS011;2815;54.094;12.112;2023-07-13T06:09:57;5.68;;;1.73;;
5585;SDS011;2815;54.094;12.112;2023-07-13T06:12:25;5.53;;;1.55;;
5585;SDS011;2815;54.094;12.112;2023-07-13T06:14:54;5.40;;;1.80;;
5585;SDS011;2815;54.094;12.112;2023-07-13T06:17:22;4.68;;;1.88;;
5585;SDS011;2815;54.094;12.112;2023-07-13T06:19:50;2.80;;;1.85;;
5585;SDS011;2815;54.094;12.112;2023-07-13T06:22:19;3.03;;;1.38;;
5585;SDS011;2815;54.094;12.112;2023-07-13T06:24:47;7.57;;;1.80;;
5585;SDS011;2815;54.094;12.112;2023-07-13T06:27:15;7.53;;;1.98;;
5585;SDS011;2815;54.094;12.112;2023-07-13T06:29:43;3.78;;;1.40;;
5585;SDS011;2815;54.094;12.112;2023-07-13T06:32:12;6.35;;;1.75;;
5585;SDS011;2815;54.094;12.112;2023-07-13T06:34:40;3.30;;;1.40;;
5585;SDS011;2815;54.094;12.112;2023-07-13T06:37:08;6.20;;;1.60;;
5585;SDS011;2815;54.094;12.112;2023-07-13T06:39:38;3.33;;;1.50;;
5585;SDS011;2815;54.094;12.112;2023-07-13T06:42:06;3.67;;;1.50;;
5585;SDS011;2815;54.094;12.112;2023-07-13T06:44:34;7.75;;;1.67;;
5585;SDS011;2815;54.094;12.112;2023-07-13T06:47:03;4.50;;;1.75;;
5585;SDS011;2815;54.094;12.112;2023-07-13T06:49:31;2.28;;;1.30;;
5585;SDS011;2815;54.094;12.112;2023-07-13T06:51:59;4.10;;;1.48;;
5585;SDS011;2815;54.094;12.112;2023-07-13T06:54:27;4.57;;;1.58;;
5585;SDS011;2815;54.094;12.112;2023-07-13T06:56:56;5.68;;;1.45;;
5585;SDS011;2815;54.094;12.112;2023-07-13T06:59:25;3.22;;;1.27;;
5585;SDS011;2815;54.094;12.112;2023-07-13T07:01:53;2.70;;;1.20;;
5585;SDS011;2815;54.094;12.112;2023-07-13T07:04:21;4.57;;;1.25;;
5585;SDS011;2815;54.094;12.112;2023-07-13T07:06:49;6.63;;;1.30;;
5585;SDS011;2815;54.094;12.112;2023-07-13T07:09:17;6.03;;;1.30;;
5585;SDS011;2815;54.094;12.112;2023-07-13T07:11:45;3.63;;;1.40;;
5585;SDS011;2815;54.094;12.112;2023-07-13T07:14:31;4.40;;;1.30;;
5585;SDS011;2815;54.094;12.112;2023-07-13T07:17:00;3.28;;;1.10;;
5585;SDS011;2815;54.094;12.112;2023-07-13T07:19:29;3.63;;;1.27;;
5585;SDS011;2815;54.094;12.112;2023-07-13T07:21:57;3.10;;;1.17;;
5585;SDS011;2815;54.094;12.112;2023-07-13T07:24:25;4.28;;;1.25;;
5585;SDS011;2815;54.094;12.112;2023-07-13T07:26:54;5.57;;;1.20;;
5585;SDS011;2815;54.094;12.112;2023-07-13T07:29:29;6.78;;;1.42;;
5585;SDS011;2815;54.094;12.112;2023-07-13T07:32:02;6.95;;;1.40;;
5585;SDS011;2815;54.094;12.112;2023-07-13T07:34:50;4.65;;;1.30;;
5585;SDS011;2815;54.094;12.112;2023-07-13T07:37:20;7.88;;;1.50;;
5585;SDS011;2815;54.094;12.112;2023-07-13T07:40:09;6.88;;;1.50;;
5585;SDS011;2815;54.094;12.112;2023-07-13T07:42:40;2.95;;;1.10;;
5585;SDS011;2815;54.094;12.112;2023-07-13T07:45:09;3.65;;;1.10;;
5585;SDS011;2815;54.094;12.112;2023-07-13T07:47:39;5.78;;;1.10;;
5585;SDS011;2815;54.094;12.112;2023-07-13T07:50:08;5.70;;;1.42;;
5585;SDS011;2815;54.094;12.112;2023-07-13T07:52:37;6.88;;;1.10;;
5585;SDS011;2815;54.094;12.112;2023-07-13T07:55:07;5.65;;;1.10;;
5585;SDS011;2815;54.094;12.112;2023-07-13T07:57:38;3.58;;;1.30;;
5585;SDS011;2815;54.094;12.112;2023-07-13T08:00:09;2.88;;;1.00;;
5585;SDS011;2815;54.094;12.112;2023-07-13T08:02:43;4.10;;;1.30;;
5585;SDS011;2815;54.094;12.112;2023-07-13T08:07:44;3.53;;;1.00;;
5585;SDS011;2815;54.094;12.112;2023-07-13T08:10:13;3.20;;;1.13;;
5585;SDS011;2815;54.094;12.112;2023-07-13T08:12:41;4.75;;;1.25;;
5585;SDS011;2815;54.094;12.112;2023-07-13T08:15:29;6.00;;;1.13;;
5585;SDS011;2815;54.094;12.112;2023-07-13T08:17:58;3.20;;;1.08;;
5585;SDS011;2815;54.094;12.112;2023-07-13T08:20:26;2.72;;;1.17;;
5585;SDS011;2815;54.094;12.112;2023-07-13T08:22:55;4.82;;;1.10;;
5585;SDS011;2815;54.094;12.112;2023-07-13T08:25:23;2.55;;;1.10;;
5585;SDS011;2815;54.094;12.112;2023-07-13T08:27:51;3.85;;;1.08;;
5585;SDS011;2815;54.094;12.112;2023-07-13T08:30:19;3.75;;;1.10;;
5585;SDS011;2815;54.094;12.112;2023-07-13T08:32:47;3.33;;;1.17;;
5585;SDS011;2815;54.094;12.112;2023-07-13T08:35:17;4.00;;;1.10;;
5585;SDS011;2815;54.094;12.112;2023-07-13T08:37:45;4.10;;;1.30;;
5585;SDS011;2815;54.094;12.112;2023-07-13T08:40:13;3.58;;;1.38;;
5585;SDS011;2815;54.094;12.112;2023-07-13T08:42:42;4.50;;;1.13;;
5585;SDS011;2815;54.094;12.112;2023-07-13T08:45:14;4.43;;;1.23;;
5585;SDS011;2815;54.094;12.112;2023-07-13T08:47:47;4.05;;;1.23;;
5585;SDS011;2815;54.094;12.112;2023-07-13T08:50:23;4.50;;;1.60;;
5585;SDS011;2815;54.094;12.112;2023-07-13T08:52:53;5.82;;;1.52;;
5585;SDS011;2815;54.094;12.112;2023-07-13T08:55:24;4.93;;;1.48;;
5585;SDS011;2815;54.094;12.112;2023-07-13T08:57:56;3.03;;;1.27;;
5585;SDS011;2815;54.094;12.112;2023-07-13T09:00:32;6.40;;;1.45;;
5585;SDS011;2815;54.094;12.112;2023-07-13T09:03:04;3.60;;;1.27;;
5585;SDS011;2815;54.094;12.112;2023-07-13T09:05:35;6.40;;;1.45;;
5585;SDS011;2815;54.094;12.112;2023-07-13T09:08:09;5.00;;;1.45;;
5585;SDS011;2815;54.094;12.112;2023-07-13T09:10:52;6.95;;;1.60;;
5585;SDS011;2815;54.094;12.112;2023-07-13T09:13:24;6.03;;;1.73;;
5585;SDS011;2815;54.094;12.112;2023-07-13T09:15:56;4.57;;;1.35;;
5585;SDS011;2815;54.094;12.112;2023-07-13T09:18:27;5.78;;;1.35;;
5585;SDS011;2815;54.094;12.112;2023-07-13T09:20:58;4.47;;;1.42;;
5585;SDS011;2815;54.094;12.112;2023-07-13T09:23:30;11.48;;;1.70;;
5585;SDS011;2815;54.094;12.112;2023-07-13T09:26:00;8.82;;;1.40;;
5585;SDS011;2815;54.094;12.112;2023-07-13T09:28:33;8.18;;;1.38;;
5585;SDS011;2815;54.094;12.112;2023-07-13T09:31:03;13.10;;;1.52;;
5585;SDS011;2815;54.094;12.112;2023-07-13T09:33:34;8.07;;;1.40;;
5585;SDS011;2815;54.094;12.112;2023-07-13T09:36:08;5.57;;;1.35;;
5585;SDS011;2815;54.094;12.112;2023-07-13T09:38:45;6.72;;;1.45;;
5585;SDS011;2815;54.094;12.112;2023-07-13T09:41:17;6.50;;;1.67;;
5585;SDS011;2815;54.094;12.112;2023-07-13T09:44:06;5.30;;;1.48;;
5585;SDS011;2815;54.094;12.112;2023-07-13T09:46:38;6.82;;;1.88;;
5585;SDS011;2815;54.094;12.112;2023-07-13T09:49:08;4.93;;;1.70;;
5585;SDS011;2815;54.094;12.112;2023-07-13T09:51:39;7.93;;;1.95;;
5585;SDS011;2815;54.094;12.112;2023-07-13T09:54:17;5.75;;;1.98;;
5585;SDS011;2815;54.094;12.112;2023-07-13T09:56:46;8.15;;;1.92;;
5585;SDS011;2815;54.094;12.112;2023-07-13T09:59:18;5.38;;;1.58;;
5585;SDS011;2815;54.094;12.112;2023-07-13T10:01:46;6.13;;;1.85;;
5585;SDS011;2815;54.094;12.112;2023-07-13T10:04:16;4.03;;;1.70;;
5585;SDS011;2815;54.094;12.112;2023-07-13T10:06:47;7.97;;;1.70;;
5585;SDS011;2815;54.094;12.112;2023-07-13T10:09:18;6.68;;;1.77;;
5585;SDS011;2815;54.094;12.112;2023-07-13T10:11:46;7.95;;;1.75;;
5585;SDS011;2815;54.094;12.112;2023-07-13T10:14:15;5.25;;;1.65;;
5585;SDS011;2815;54.094;12.112;2023-07-13T10:16:45;6.43;;;1.70;;
5585;SDS011;2815;54.094;12.112;2023-07-13T10:19:16;8.68;;;1.67;;
5585;SDS011;2815;54.094;12.112;2023-07-13T10:21:52;8.80;;;2.00;;
5585;SDS011;2815;54.094;12.112;2023-07-13T10:24:22;11.25;;;2.05;;
5585;SDS011;2815;54.094;12.112;2023-07-13T10:26:52;13.18;;;2.30;;
5585;SDS011;2815;54.094;12.112;2023-07-13T10:29:24;7.57;;;1.90;;
5585;SDS011;2815;54.094;12.112;2023-07-13T10:31:54;10.95;;;2.20;;
5585;SDS011;2815;54.094;12.112;2023-07-13T10:34:24;5.85;;;1.77;;
5585;SDS011;2815;54.094;12.112;2023-07-13T10:36:54;8.77;;;2.20;;
5585;SDS011;2815;54.094;12.112;2023-07-13T10:39:23;11.50;;;1.92;;
5585;SDS011;2815;54.094;12.112;2023-07-13T10:41:53;6.50;;;1.60;;
5585;SDS011;2815;54.094;12.112;2023-07-13T10:44:22;7.45;;;1.42;;
5585;SDS011;2815;54.094;12.112;2023-07-13T10:46:55;6.88;;;2.28;;
5585;SDS011;2815;54.094;12.112;2023-07-13T10:49:26;7.50;;;2.28;;
5585;SDS011;2815;54.094;12.112;2023-07-13T10:51:57;7.85;;;1.90;;
5585;SDS011;2815;54.094;12.112;2023-07-13T10:54:26;3.55;;;1.63;;
5585;SDS011;2815;54.094;12.112;2023-07-13T10:57:07;7.40;;;2.05;;
5585;SDS011;2815;54.094;12.112;2023-07-13T10:59:43;5.63;;;1.70;;
5585;SDS011;2815;54.094;12.112;2023-07-13T11:02:16;4.95;;;1.20;;
5585;SDS011;2815;54.094;12.112;2023-07-13T11:04:50;6.85;;;1.20;;
5585;SDS011;2815;54.094;12.112;2023-07-13T11:07:23;5.78;;;1.25;;
5585;SDS011;2815;54.094;12.112;2023-07-13T11:09:52;7.72;;;0.98;;
5585;SDS011;2815;54.094;12.112;2023-07-13T11:12:48;3.35;;;1.02;;
5585;SDS011;2815;54.094;12.112;2023-07-13T11:15:29;2.60;;;0.90;;
5585;SDS011;2815;54.094;12.112;2023-07-13T11:18:02;5.18;;;1.15;;
5585;SDS011;2815;54.094;12.112;2023-07-13T11:20:32;3.78;;;1.10;;
5585;SDS011;2815;54.094;12.112;2023-07-13T11:23:20;4.00;;;1.08;;
5585;SDS011;2815;54.094;12.112;2023-07-13T11:25:55;4.10;;;1.00;;
5585;SDS011;2815;54.094;12.112;2023-07-13T11:28:24;5.88;;;1.17;;
5585;SDS011;2815;54.094;12.112;2023-07-13T11:31:00;4.50;;;0.98;;
5585;SDS011;2815;54.094;12.112;2023-07-13T11:33:49;2.60;;;0.85;;
5585;SDS011;2815;54.094;12.112;2023-07-13T11:36:21;3.28;;;0.95;;
5585;SDS011;2815;54.094;12.112;2023-07-13T11:38:57;4.88;;;1.20;;
5585;SDS011;2815;54.094;12.112;2023-07-13T11:41:27;4.57;;;1.27;;
5585;SDS011;2815;54.094;12.112;2023-07-13T11:44:04;3.45;;;1.00;;
5585;SDS011;2815;54.094;12.112;2023-07-13T11:46:34;7.63;;;1.38;;
5585;SDS011;2815;54.094;12.112;2023-07-13T11:49:04;4.55;;;1.05;;
5585;SDS011;2815;54.094;12.112;2023-07-13T11:51:33;2.90;;;0.98;;
5585;SDS011;2815;54.094;12.112;2023-07-13T11:54:05;4.35;;;1.20;;
5585;SDS011;2815;54.094;12.112;2023-07-13T11:56:34;4.32;;;1.17;;
5585;SDS011;2815;54.094;12.112;2023-07-13T11:59:04;4.60;;;1.00;;
5585;SDS011;2815;54.094;12.112;2023-07-13T12:01:34;6.78;;;1.27;;
5585;SDS011;2815;54.094;12.112;2023-07-13T12:04:04;6.18;;;1.40;;
5585;SDS011;2815;54.094;12.112;2023-07-13T12:06:35;5.55;;;1.20;;
5585;SDS011;2815;54.094;12.112;2023-07-13T12:09:10;3.67;;;1.00;;
5585;SDS011;2815;54.094;12.112;2023-07-13T12:11:40;5.53;;;1.67;;
5585;SDS011;2815;54.094;12.112;2023-07-13T12:14:13;4.50;;;1.08;;
5585;SDS011;2815;54.094;12.112;2023-07-13T12:16:42;4.15;;;1.00;;
5585;SDS011;2815;54.094;12.112;2023-07-13T12:19:17;6.95;;;1.60;;
5585;SDS011;2815;54.094;12.112;2023-07-13T12:21:46;3.97;;;1.20;;
5585;SDS011;2815;54.094;12.112;2023-07-13T12:24:17;5.97;;;1.23;;
5585;SDS011;2815;54.094;12.112;2023-07-13T12:26:50;4.03;;;1.17;;
5585;SDS011;2815;54.094;12.112;2023-07-13T12:29:20;9.00;;;1.40;;
5585;SDS011;2815;54.094;12.112;2023-07-13T12:31:49;6.10;;;1.35;;
5585;SDS011;2815;54.094;12.112;2023-07-13T12:34:19;3.15;;;1.27;;
5585;SDS011;2815;54.094;12.112;2023-07-13T12:36:49;2.90;;;1.20;;
5585;SDS011;2815;54.094;12.112;2023-07-13T12:39:21;7.00;;;1.27;;
5585;SDS011;2815;54.094;12.112;2023-07-13T12:41:51;4.53;;;1.40;;
5585;SDS011;2815;54.094;12.112;2023-07-13T12:44:22;7.55;;;1.33;;
5585;SDS011;2815;54.094;12.112;2023-07-13T12:46:56;3.80;;;1.10;;
5585;SDS011;2815;54.094;12.112;2023-07-13T12:49:29;8.93;;;1.20;;
5585;SDS011;2815;54.094;12.112;2023-07-13T12:52:03;5.57;;;1.30;;
5585;SDS011;2815;54.094;12.112;2023-07-13T12:54:40;7.78;;;1.90;;
5585;SDS011;2815;54.094;12.112;2023-07-13T12:57:21;8.77;;;1.20;;
5585;SDS011;2815;54.094;12.112;2023-07-13T12:59:51;5.10;;;0.98;;
5585;SDS011;2815;54.094;12.112;2023-07-13T13:02:26;9.90;;;1.20;;
5585;SDS011;2815;54.094;12.112;2023-07-13T13:04:57;7.88;;;1.20;;
5585;SDS011;2815;54.094;12.112;2023-07-13T13:07:27;15.93;;;2.05;;
5585;SDS011;2815;54.094;12.112;2023-07-13T13:09:58;16.65;;;2.30;;
5585;SDS011;2815;54.094;12.112;2023-07-13T13:12:31;12.80;;;1.73;;
5585;SDS011;2815;54.094;12.112;2023-07-13T13:15:00;9.70;;;1.42;;
5585;SDS011;2815;54.094;12.112;2023-07-13T13:17:30;5.55;;;1.50;;
5585;SDS011;2815;54.094;12.112;2023-07-13T13:20:00;7.13;;;1.58;;
5585;SDS011;2815;54.094;12.112;2023-07-13T13:22:30;6.65;;;1.77;;
5585;SDS011;2815;54.094;12.112;2023-07-13T13:25:01;5.80;;;1.42;;
5585;SDS011;2815;54.094;12.112;2023-07-13T13:27:32;6.35;;;1.40;;
5585;SDS011;2815;54.094;12.112;2023-07-13T13:30:01;4.97;;;1.50;;
5585;SDS011;2815;54.094;12.112;2023-07-13T13:32:32;8.35;;;1.45;;
5585;SDS011;2815;54.094;12.112;2023-07-13T13:35:01;10.50;;;1.77;;
5585;SDS011;2815;54.094;12.112;2023-07-13T13:37:31;5.72;;;1.58;;
5585;SDS011;2815;54.094;12.112;2023-07-13T13:40:01;6.85;;;1.20;;
5585;SDS011;2815;54.094;12.112;2023-07-13T13:42:35;6.22;;;1.30;;
5585;SDS011;2815;54.094;12.112;2023-07-13T13:45:04;4.05;;;1.27;;
5585;SDS011;2815;54.094;12.112;2023-07-13T13:47:33;5.63;;;1.23;;
5585;SDS011;2815;54.094;12.112;2023-07-13T13:50:09;4.30;;;1.52;;
5585;SDS011;2815;54.094;12.112;2023-07-13T13:52:40;5.63;;;1.17;;
5585;SDS011;2815;54.094;12.112;2023-07-13T13:55:15;5.63;;;1.52;;
5585;SDS011;2815;54.094;12.112;2023-07-13T13:57:45;5.65;;;1.33;;
5585;SDS011;2815;54.094;12.112;2023-07-13T14:00:15;2.97;;;1.40;;
5585;SDS011;2815;54.094;12.112;2023-07-13T14:02:58;1.73;;;1.00;;
5585;SDS011;2815;54.094;12.112;2023-07-13T14:05:30;5.05;;;1.40;;
5585;SDS011;2815;54.094;12.112;2023-07-13T14:07:59;2.35;;;1.08;;
5585;SDS011;2815;54.094;12.112;2023-07-13T14:10:29;3.92;;;1.30;;
5585;SDS011;2815;54.094;12.112;2023-07-13T14:12:58;2.70;;;1.00;;
5585;SDS011;2815;54.094;12.112;2023-07-13T14:15:27;1.65;;;0.95;;
5585;SDS011;2815;54.094;12.112;2023-07-13T14:17:58;3.05;;;1.23;;
5585;SDS011;2815;54.094;12.112;2023-07-13T14:20:34;2.38;;;1.00;;
5585;SDS011;2815;54.094;12.112;2023-07-13T14:25:37;5.63;;;1.55;;
5585;SDS011;2815;54.094;12.112;2023-07-13T14:28:11;5.30;;;0.90;;
5585;SDS011;2815;54.094;12.112;2023-07-13T14:30:47;2.17;;;0.90;;
5585;SDS011;2815;54.094;12.112;2023-07-13T14:33:17;3.25;;;0.90;;
5585;SDS011;2815;54.094;12.112;2023-07-13T14:35:47;7.25;;;1.20;;
5585;SDS011;2815;54.094;12.112;2023-07-13T14:38:17;2.97;;;0.85;;
5585;SDS011;2815;54.094;12.112;2023-07-13T14:40:50;2.10;;;0.73;;
5585;SDS011;2815;54.094;12.112;2023-07-13T14:43:20;4.25;;;1.00;;
5585;SDS011;2815;54.094;12.112;2023-07-13T14:45:51;3.65;;;1.00;;
5585;SDS011;2815;54.094;12.112;2023-07-13T14:48:23;1.88;;;1.40;;
5585;SDS011;2815;54.094;12.112;2023-07-13T14:50:55;4.45;;;1.20;;
5585;SDS011;2815;54.094;12.112;2023-07-13T14:53:25;3.35;;;1.27;;
5585;SDS011;2815;54.094;12.112;2023-07-13T14:55:59;6.68;;;1.27;;
5585;SDS011;2815;54.094;12.112;2023-07-13T14:58:27;2.38;;;0.98;;
5585;SDS011;2815;54.094;12.112;2023-07-13T15:00:59;3.75;;;1.15;;
5585;SDS011;2815;54.094;12.112;2023-07-13T15:03:27;4.03;;;0.90;;
5585;SDS011;2815;54.094;12.112;2023-07-13T15:05:56;2.97;;;1.15;;
5585;SDS011;2815;54.094;12.112;2023-07-13T15:08:24;2.40;;;1.10;;
5585;SDS011;2815;54.094;12.112;2023-07-13T15:10:59;3.70;;;1.05;;
5585;SDS011;2815;54.094;12.112;2023-07-13T15:13:27;2.30;;;1.02;;
5585;SDS011;2815;54.094;12.112;2023-07-13T15:15:56;3.17;;;0.77;;
5585;SDS011;2815;54.094;12.112;2023-07-13T15:18:28;4.47;;;1.10;;
5585;SDS011;2815;54.094;12.112;2023-07-13T15:20:57;4.70;;;1.17;;
5585;SDS011;2815;54.094;12.112;2023-07-13T15:23:29;2.42;;;1.00;;
5585;SDS011;2815;54.094;12.112;2023-07-13T15:25:59;5.60;;;1.08;;
5585;SDS011;2815;54.094;12.112;2023-07-13T15:28:44;4.80;;;1.58;;
5585;SDS011;2815;54.094;12.112;2023-07-13T15:31:20;3.78;;;1.13;;
5585;SDS011;2815;54.094;12.112;2023-07-13T15:33:51;3.13;;;1.00;;
5585;SDS011;2815;54.094;12.112;2023-07-13T15:36:21;2.67;;;1.00;;
5585;SDS011;2815;54.094;12.112;2023-07-13T15:38:52;2.47;;;1.00;;
5585;SDS011;2815;54.094;12.112;2023-07-13T15:41:24;2.65;;;0.93;;
5585;SDS011;2815;54.094;12.112;2023-07-13T15:43:55;5.90;;;1.58;;
5585;SDS011;2815;54.094;12.112;2023-07-13T15:46:29;4.40;;;1.00;;
5585;SDS011;2815;54.094;12.112;2023-07-13T15:48:57;3.95;;;1.10;;
5585;SDS011;2815;54.094;12.112;2023-07-13T15:51:27;1.48;;;0.95;;
5585;SDS011;2815;54.094;12.112;2023-07-13T15:56:33;3.88;;;1.20;;
5585;SDS011;2815;54.094;12.112;2023-07-13T15:59:03;3.63;;;1.83;;
5585;SDS011;2815;54.094;12.112;2023-07-13T16:01:32;5.93;;;1.40;;
5585;SDS011;2815;54.094;12.112;2023-07-13T16:04:01;4.18;;;1.27;;
5585;SDS011;2815;54.094;12.112;2023-07-13T16:06:38;7.55;;;1.35;;
5585;SDS011;2815;54.094;12.112;2023-07-13T16:09:10;2.67;;;1.00;;
5585;SDS011;2815;54.094;12.112;2023-07-13T16:11:49;3.42;;;1.10;;
5585;SDS011;2815;54.094;12.112;2023-07-13T16:14:21;1.73;;;1.02;;
5585;SDS011;2815;54.094;12.112;2023-07-13T16:16:51;5.40;;;1.17;;
5585;SDS011;2815;54.094;12.112;2023-07-13T16:19:22;4.65;;;1.40;;
5585;SDS011;2815;54.094;12.112;2023-07-13T16:21:56;3.03;;;1.05;;
5585;SDS011;2815;54.094;12.112;2023-07-13T16:24:27;4.00;;;1.40;;
5585;SDS011;2815;54.094;12.112;2023-07-13T16:27:01;3.15;;;1.13;;
5585;SDS011;2815;54.094;12.112;2023-07-13T16:29:44;2.85;;;1.20;;
5585;SDS011;2815;54.094;12.112;2023-07-13T16:32:13;5.68;;;1.20;;
5585;SDS011;2815;54.094;12.112;2023-07-13T16:34:44;2.03;;;1.13;;
5585;SDS011;2815;54.094;12.112;2023-07-13T16:37:14;1.65;;;1.02;;
5585;SDS011;2815;54.094;12.112;2023-07-13T16:39:48;2.03;;;1.20;;
5585;SDS011;2815;54.094;12.112;2023-07-13T16:42:27;2.78;;;1.10;;
5585;SDS011;2815;54.094;12.112;2023-07-13T16:45:00;4.05;;;1.17;;
5585;SDS011;2815;54.094;12.112;2023-07-13T16:47:30;3.92;;;1.17;;
5585;SDS011;2815;54.094;12.112;2023-07-13T16:49:58;2.15;;;0.95;;
5585;SDS011;2815;54.094;12.112;2023-07-13T16:52:31;3.65;;;0.98;;
5585;SDS011;2815;54.094;12.112;2023-07-13T16:55:02;4.63;;;1.00;;
5585;SDS011;2815;54.094;12.112;2023-07-13T16:57:33;3.65;;;1.10;;
5585;SDS011;2815;54.094;12.112;2023-07-13T17:00:05;2.07;;;0.97;;
5585;SDS011;2815;54.094;12.112;2023-07-13T17:02:43;5.55;;;1.10;;
5585;SDS011;2815;54.094;12.112;2023-07-13T17:05:14;2.85;;;1.05;;
5585;SDS011;2815;54.094;12.112;2023-07-13T17:07:44;2.63;;;0.90;;
5585;SDS011;2815;54.094;12.112;2023-07-13T17:10:31;3.20;;;0.88;;
5585;SDS011;2815;54.094;12.112;2023-07-13T17:13:02;2.75;;;0.90;;
5585;SDS011;2815;54.094;12.112;2023-07-13T17:15:33;5.20;;;1.10;;
5585;SDS011;2815;54.094;12.112;2023-07-13T17:18:02;6.55;;;1.15;;